Three Springs, Pennsylvania
Current Conditions -  °F | °C
As of 5:53 AM on Sunday 21 Dec 2014 (Local Time) from KAOO Reporting Station
Haze Haze  
Wind Chill: 26°   Ceiling: 2400
Heat Index: 26°   Visibility: 6mi
Dew Point: 23°   Wind: 0mph
Humidity: 88%   Direction: NA
Pressure: 30.25"   Gusts: NA
Location:  40.2°N, 77.98°W
Report Text: KAOO 211053Z AUTO 00000KT 6SM BR OVC024 M03/M05 A3025 RMK AO2 SLP263 T10331050
Loading
Personal Weather Stations






























Interactive Weather Map New forecast layout! Learn more

10-Day Weather Forecast

Advertisements
Track Severe Weather on mobile